createdAt,value
2023-01-19T00:02:47.488Z,39.60
2023-01-19T00:05:15.396Z,39.83
2023-01-19T00:07:43.141Z,39.79
2023-01-19T00:10:11.497Z,39.64
2023-01-19T00:12:39.327Z,39.83
2023-01-19T00:15:08.616Z,39.83
2023-01-19T00:17:36.516Z,39.90
2023-01-19T00:20:06.291Z,39.65
2023-01-19T00:22:34.204Z,39.73
2023-01-19T00:25:01.847Z,39.75
2023-01-19T00:27:30.485Z,39.37
2023-01-19T00:29:58.104Z,39.62
2023-01-19T00:32:25.796Z,39.71
2023-01-19T00:34:53.380Z,39.71
2023-01-19T00:37:22.448Z,39.62
2023-01-19T00:39:50.725Z,39.84
2023-01-19T00:42:38.043Z,39.79
2023-01-19T00:45:06.540Z,39.90
2023-01-19T00:47:34.442Z,39.56
2023-01-19T00:50:02.077Z,39.57
2023-01-19T00:52:31.081Z,39.62
2023-01-19T00:54:58.655Z,39.46
2023-01-19T00:57:27.073Z,39.67
2023-01-19T00:59:54.677Z,39.56
2023-01-19T02:45:11.100Z,39.16
2023-01-19T03:45:15.884Z,38.97
2023-01-19T05:45:14.277Z,39.09
2023-01-19T06:49:11.898Z,38.99
2023-01-19T06:51:39.853Z,38.93
2023-01-19T06:54:07.695Z,38.99
2023-01-19T06:56:35.250Z,39.08
2023-01-19T06:59:03.011Z,39.01
2023-01-19T07:01:30.644Z,38.99
2023-01-19T07:03:58.351Z,38.97
2023-01-19T07:06:27.298Z,38.86
2023-01-19T07:08:55.090Z,38.98
2023-01-19T07:11:30.685Z,38.83
2023-01-19T07:14:00.361Z,38.98
2023-01-19T07:16:28.193Z,38.81
2023-01-19T07:18:55.817Z,38.79
2023-01-19T07:21:24.012Z,38.91
2023-01-19T07:23:53.553Z,38.84
2023-01-19T07:26:21.941Z,38.96
2023-01-19T07:28:49.758Z,38.98
2023-01-19T07:31:17.822Z,38.80
2023-01-19T07:33:45.618Z,38.85
2023-01-19T07:36:13.587Z,38.91
2023-01-19T07:38:41.272Z,38.94
2023-01-19T07:41:10.680Z,38.93
2023-01-19T07:43:38.734Z,38.84
2023-01-19T07:46:07.015Z,38.89
2023-01-19T07:48:34.757Z,38.67
2023-01-19T07:51:05.194Z,38.75
2023-01-19T07:53:32.885Z,38.96
2023-01-19T07:56:00.666Z,39.06
2023-01-19T07:58:29.648Z,38.87
2023-01-19T08:00:57.336Z,38.82
2023-01-19T08:03:25.011Z,39.10
2023-01-19T08:05:52.977Z,38.83
2023-01-19T08:08:20.798Z,38.97
2023-01-19T08:10:50.465Z,38.92
2023-01-19T08:13:18.531Z,38.92
2023-01-19T08:15:48.743Z,38.94
2023-01-19T08:18:16.528Z,38.92
2023-01-19T08:20:44.210Z,39.08
2023-01-19T08:23:11.841Z,38.73
2023-01-19T08:25:40.858Z,38.78
2023-01-19T08:28:08.685Z,38.73
2023-01-19T08:30:36.554Z,38.72
2023-01-19T08:33:08.202Z,38.72
2023-01-19T08:35:38.379Z,38.87
2023-01-19T08:38:06.213Z,38.84
2023-01-19T08:40:34.778Z,38.79
2023-01-19T08:43:04.762Z,38.92
2023-01-19T08:45:32.325Z,39.01
2023-01-19T08:48:00.042Z,38.65
2023-01-19T08:50:29.084Z,38.66
2023-01-19T08:52:56.903Z,38.62
2023-01-19T08:55:24.926Z,38.66
2023-01-19T08:57:53.417Z,38.65
2023-01-19T09:00:21.334Z,38.84
2023-01-19T09:02:49.007Z,38.92
2023-01-19T09:05:16.756Z,38.84
2023-01-19T09:07:46.475Z,38.97
2023-01-19T09:10:14.121Z,38.79
2023-01-19T09:12:41.811Z,38.86
2023-01-19T09:15:10.863Z,39.11
2023-01-19T09:17:38.663Z,38.80
2023-01-19T09:20:06.819Z,38.85
2023-01-19T09:22:34.667Z,38.65
2023-01-19T09:25:03.731Z,38.31
2023-01-19T09:27:31.780Z,38.75
2023-01-19T09:29:59.393Z,38.58
2023-01-19T09:32:26.947Z,38.78
2023-01-19T09:34:56.488Z,38.98
2023-01-19T09:37:24.282Z,38.93
2023-01-19T09:39:51.885Z,38.92
2023-01-19T09:42:23.056Z,38.92
2023-01-19T09:44:50.853Z,38.98
2023-01-19T09:47:18.730Z,38.68
2023-01-19T09:49:46.879Z,38.88
2023-01-19T09:52:14.515Z,38.87
2023-01-19T09:54:44.303Z,38.97
2023-01-19T09:57:12.147Z,38.92
2023-01-19T09:59:43.756Z,38.93
2023-01-19T10:02:18.101Z,38.60
2023-01-19T10:04:46.446Z,38.77
2023-01-19T10:07:15.863Z,38.72
2023-01-19T10:09:58.315Z,38.91
2023-01-19T10:12:30.376Z,38.58
2023-01-19T10:15:01.531Z,38.77
2023-01-19T10:17:32.618Z,38.46
2023-01-19T10:20:00.232Z,38.56
2023-01-19T10:22:28.405Z,38.62
2023-01-19T10:24:56.339Z,38.62
2023-01-19T10:27:25.436Z,38.82
2023-01-19T10:29:53.237Z,38.63
2023-01-19T10:32:23.288Z,38.90
2023-01-19T10:34:51.164Z,38.82
2023-01-19T10:37:20.037Z,38.60
2023-01-19T10:39:47.988Z,38.71
2023-01-19T10:42:16.879Z,38.50
2023-01-19T10:44:45.240Z,38.47
2023-01-19T10:47:15.404Z,38.43
2023-01-19T10:49:44.578Z,38.99
2023-01-19T10:52:20.741Z,38.95
2023-01-19T10:54:48.983Z,38.96
2023-01-19T10:57:24.379Z,38.82
2023-01-19T10:59:52.042Z,38.75
2023-01-19T11:02:20.631Z,38.93
2023-01-19T11:04:50.402Z,38.93
2023-01-19T11:07:19.909Z,39.02
2023-01-19T11:09:47.569Z,38.96
2023-01-19T11:12:21.543Z,38.89
2023-01-19T11:14:49.429Z,38.87
2023-01-19T11:17:21.019Z,38.86
2023-01-19T11:19:57.551Z,39.02
2023-01-19T11:22:26.909Z,38.49
2023-01-19T11:24:54.906Z,38.81
2023-01-19T11:27:23.855Z,38.93
2023-01-19T11:29:51.631Z,38.84
2023-01-19T11:32:22.026Z,38.86
2023-01-19T11:34:49.794Z,38.95
2023-01-19T11:37:28.853Z,38.84
2023-01-19T11:39:57.056Z,38.62
2023-01-19T11:42:24.989Z,38.90
2023-01-19T11:44:56.874Z,38.89
2023-01-19T11:47:24.959Z,38.48
2023-01-19T11:49:53.846Z,38.78
2023-01-19T11:52:23.062Z,38.86
2023-01-19T11:54:54.932Z,39.00
2023-01-19T11:57:22.559Z,38.96
2023-01-19T11:59:52.898Z,38.65
2023-01-19T12:02:24.017Z,38.99
2023-01-19T12:04:51.670Z,38.88
2023-01-19T12:07:20.423Z,38.89
2023-01-19T12:09:48.818Z,39.00
2023-01-19T12:12:21.792Z,38.71
2023-01-19T12:14:51.545Z,39.00
2023-01-19T12:17:20.905Z,38.86
2023-01-19T12:19:54.836Z,39.06
2023-01-19T12:22:24.158Z,38.92
2023-01-19T12:24:54.218Z,38.85
2023-01-19T12:27:25.343Z,39.00
2023-01-19T12:29:53.118Z,38.96
2023-01-19T12:32:21.157Z,38.88
2023-01-19T12:34:49.044Z,39.05
2023-01-19T12:37:35.907Z,38.93
2023-01-19T12:40:05.568Z,39.03
2023-01-19T12:42:34.630Z,39.08
2023-01-19T12:45:06.432Z,38.81
2023-01-19T12:47:34.016Z,38.88
2023-01-19T12:50:06.943Z,38.71
2023-01-19T12:52:35.131Z,38.62
2023-01-19T12:55:03.997Z,38.79
2023-01-19T12:57:33.045Z,38.79
2023-01-19T13:00:03.081Z,38.94
2023-01-19T13:02:52.233Z,38.97
2023-01-19T13:05:23.794Z,39.04
2023-01-19T13:08:09.941Z,39.02
2023-01-19T13:10:56.960Z,39.08
2023-01-19T13:13:24.887Z,38.83
2023-01-19T13:15:55.765Z,39.08
2023-01-19T13:18:24.748Z,39.08
2023-01-19T13:20:53.405Z,38.97
2023-01-19T13:23:22.450Z,38.84
2023-01-19T13:26:00.149Z,38.97
2023-01-19T13:28:29.997Z,38.73
2023-01-19T13:30:59.354Z,38.87
2023-01-19T13:33:27.960Z,38.94
2023-01-19T13:35:56.931Z,39.02
2023-01-19T13:38:24.899Z,38.86
2023-01-19T13:40:52.740Z,38.85
2023-01-19T13:43:21.724Z,38.77
2023-01-19T13:45:51.749Z,39.00
2023-01-19T13:48:23.277Z,38.99
2023-01-19T13:50:58.370Z,38.82
2023-01-19T13:53:26.166Z,38.84
2023-01-19T13:56:12.728Z,38.98
2023-01-19T13:58:40.400Z,39.00
2023-01-19T14:01:19.335Z,38.75
2023-01-19T14:03:52.209Z,38.86
2023-01-19T14:06:31.434Z,38.75
2023-01-19T14:09:08.979Z,38.70
2023-01-19T14:11:36.608Z,38.58
2023-01-19T14:14:04.211Z,38.71
2023-01-19T14:16:31.969Z,38.91
2023-01-19T14:19:02.237Z,39.06
2023-01-19T14:21:38.085Z,38.89
2023-01-19T14:24:08.924Z,39.00
2023-01-19T14:26:41.723Z,39.01
2023-01-19T14:29:19.988Z,39.06
2023-01-19T14:31:48.438Z,38.96
2023-01-19T14:34:36.312Z,39.00
2023-01-19T14:37:04.268Z,38.99
2023-01-19T14:39:32.272Z,38.88
2023-01-19T14:42:00.174Z,38.86
2023-01-19T14:44:29.679Z,38.86
2023-01-19T14:46:59.408Z,38.90
2023-01-19T14:49:30.230Z,38.68
2023-01-19T14:51:59.460Z,38.62
2023-01-19T14:54:29.715Z,38.68
2023-01-19T14:56:57.715Z,38.74
2023-01-19T14:59:25.514Z,38.65
2023-01-19T15:01:53.387Z,38.49
2023-01-19T15:04:21.094Z,38.68
2023-01-19T15:06:48.678Z,38.70
2023-01-19T15:09:17.719Z,38.74
2023-01-19T15:11:45.999Z,38.97
2023-01-19T15:14:14.325Z,38.84
2023-01-19T15:16:41.983Z,38.98
2023-01-19T15:19:11.019Z,38.86
2023-01-19T15:21:41.952Z,38.98
2023-01-19T15:24:10.800Z,38.98
2023-01-19T15:26:40.379Z,39.04
2023-01-19T15:29:13.800Z,39.03
2023-01-19T15:31:42.113Z,38.99
2023-01-19T15:34:10.835Z,39.04
2023-01-19T15:36:38.480Z,38.96
2023-01-19T15:39:06.087Z,38.86
2023-01-19T15:41:33.688Z,39.03
2023-01-19T15:44:03.525Z,39.04
2023-01-19T15:46:31.092Z,39.03
2023-01-19T15:48:58.937Z,39.08
2023-01-19T15:51:27.229Z,39.01
2023-01-19T15:53:54.946Z,39.07
2023-01-19T15:56:23.302Z,39.08
2023-01-19T15:58:50.944Z,39.20
2023-01-19T16:01:21.261Z,39.01
2023-01-19T16:03:48.929Z,39.06
2023-01-19T16:06:17.823Z,39.23
2023-01-19T16:08:45.675Z,39.14
2023-01-19T16:11:14.644Z,39.10
2023-01-19T16:13:44.834Z,39.18
2023-01-19T16:16:13.765Z,39.24
2023-01-19T16:18:43.475Z,39.13
2023-01-19T16:21:11.328Z,39.15
2023-01-19T16:23:38.925Z,39.16
2023-01-19T16:26:07.808Z,39.27
2023-01-19T16:28:35.501Z,39.28
2023-01-19T16:31:03.104Z,38.95
2023-01-19T16:33:30.762Z,39.26
2023-01-19T16:36:00.095Z,38.90
2023-01-19T16:38:27.814Z,38.99
2023-01-19T16:40:55.424Z,39.08
2023-01-19T16:43:23.051Z,38.93
2023-01-19T16:45:57.749Z,39.13
2023-01-19T16:48:25.598Z,39.13
2023-01-19T16:51:00.605Z,39.08
2023-01-19T16:53:28.710Z,39.12
2023-01-19T16:55:56.687Z,39.04
2023-01-19T16:58:24.385Z,39.18
2023-01-19T17:00:52.125Z,39.19
2023-01-19T17:03:19.820Z,39.08
2023-01-19T17:05:50.868Z,39.33
2023-01-19T17:08:20.387Z,39.16
2023-01-19T17:10:47.955Z,39.08
2023-01-19T17:13:16.059Z,39.06
2023-01-19T17:15:44.955Z,39.16
2023-01-19T17:18:13.411Z,39.22
2023-01-19T17:20:42.058Z,39.11
2023-01-19T17:23:09.965Z,39.20
2023-01-19T17:25:39.462Z,39.22
2023-01-19T17:28:07.129Z,39.18
2023-01-19T17:30:34.923Z,39.15
2023-01-19T17:33:02.711Z,39.02
2023-01-19T17:35:30.440Z,39.32
2023-01-19T17:37:58.389Z,39.19
2023-01-19T17:40:27.046Z,39.07
2023-01-19T17:42:56.270Z,39.08
2023-01-19T17:45:23.938Z,39.15
2023-01-19T17:47:51.664Z,39.29
2023-01-19T17:50:19.607Z,39.15
2023-01-19T17:52:47.422Z,39.11
2023-01-19T17:55:15.821Z,39.12
2023-01-19T17:57:43.480Z,39.09
2023-01-19T18:00:13.694Z,39.25
2023-01-19T18:02:42.206Z,39.17
2023-01-19T18:05:12.586Z,39.30
2023-01-19T18:07:40.400Z,39.00
2023-01-19T18:10:08.664Z,39.24
2023-01-19T18:12:36.375Z,39.08
2023-01-19T18:15:04.258Z,39.21
2023-01-19T18:17:33.226Z,39.25
2023-01-19T18:20:00.884Z,39.23
2023-01-19T18:22:28.703Z,39.17
2023-01-19T18:24:56.331Z,39.18
2023-01-19T18:27:23.954Z,39.29
2023-01-19T18:29:51.684Z,39.20
2023-01-19T18:32:19.313Z,39.27
2023-01-19T18:34:48.348Z,39.09
2023-01-19T18:37:15.951Z,39.11
2023-01-19T18:39:43.809Z,39.09
2023-01-19T18:42:11.386Z,39.35
2023-01-19T18:44:38.997Z,39.26
2023-01-19T18:47:06.635Z,39.23
2023-01-19T18:49:34.286Z,39.08
2023-01-19T18:52:04.103Z,39.21
2023-01-19T18:54:31.947Z,39.19
2023-01-19T18:56:59.924Z,39.13
2023-01-19T18:59:27.716Z,39.08
2023-01-19T19:01:55.325Z,39.09
2023-01-19T19:04:22.992Z,39.36
2023-01-19T19:06:50.603Z,39.29
2023-01-19T19:09:19.583Z,39.36
2023-01-19T19:11:47.267Z,39.40
2023-01-19T19:14:15.178Z,39.11
2023-01-19T19:16:42.902Z,39.27
2023-01-19T19:19:11.906Z,39.32
2023-01-19T19:21:39.485Z,39.20
2023-01-19T19:24:07.697Z,39.30
2023-01-19T19:26:36.704Z,39.25
2023-01-19T19:29:04.411Z,39.22
2023-01-19T19:31:32.348Z,39.21
2023-01-19T19:34:00.265Z,39.23
2023-01-19T19:36:28.129Z,39.16
2023-01-19T19:38:55.795Z,39.29
2023-01-19T19:41:24.080Z,39.26
2023-01-19T19:43:53.039Z,39.22
2023-01-19T19:46:20.967Z,39.34
2023-01-19T19:48:48.677Z,39.08
2023-01-19T19:51:19.262Z,39.30
2023-01-19T19:53:49.040Z,39.21
2023-01-19T19:56:19.778Z,39.26
2023-01-19T19:58:47.530Z,39.25
2023-01-19T20:01:17.069Z,39.32
2023-01-19T20:03:44.701Z,39.36
2023-01-19T20:06:13.160Z,39.25
2023-01-19T20:08:40.837Z,39.39
2023-01-19T20:11:08.927Z,39.42
2023-01-19T20:13:36.824Z,39.32
2023-01-19T20:16:04.565Z,39.22
2023-01-19T20:18:33.883Z,39.37
2023-01-19T20:21:01.887Z,39.45
2023-01-19T20:23:29.571Z,39.33
2023-01-19T20:25:57.185Z,39.39
2023-01-19T20:28:24.856Z,39.35
2023-01-19T20:30:54.638Z,39.40
2023-01-19T20:33:22.310Z,39.39
2023-01-19T20:35:51.972Z,39.38
2023-01-19T20:38:19.573Z,39.49
2023-01-19T20:40:47.199Z,39.43
2023-01-19T20:43:14.862Z,39.25
2023-01-19T20:45:42.488Z,39.45
2023-01-19T20:48:10.075Z,39.42
2023-01-19T20:50:38.020Z,39.33
2023-01-19T20:53:07.029Z,39.26
2023-01-19T20:55:34.619Z,39.40
2023-01-19T20:58:02.186Z,39.45
2023-01-19T21:00:29.958Z,39.46
2023-01-19T21:02:57.569Z,39.31
2023-01-19T21:05:25.214Z,39.39
2023-01-19T21:07:52.819Z,39.44
2023-01-19T21:10:22.142Z,39.45
2023-01-19T21:12:49.705Z,39.22
2023-01-19T21:15:18.056Z,39.37
2023-01-19T21:17:46.250Z,39.38
2023-01-19T21:20:14.025Z,39.39
2023-01-19T21:22:41.575Z,39.52
2023-01-19T21:25:09.580Z,39.38
2023-01-19T21:27:38.500Z,39.55
2023-01-19T21:30:06.561Z,39.41
2023-01-19T21:32:34.165Z,39.43
2023-01-19T21:35:01.801Z,39.47
2023-01-19T21:37:30.464Z,39.43
2023-01-19T21:39:58.514Z,39.45
2023-01-19T21:42:26.744Z,39.56
2023-01-19T21:44:55.790Z,39.53
2023-01-19T21:47:23.819Z,39.29
2023-01-19T21:49:51.369Z,39.30
2023-01-19T21:52:19.221Z,39.43
2023-01-19T21:54:46.876Z,39.51
2023-01-19T21:57:15.382Z,39.25
2023-01-19T21:59:43.008Z,39.58
2023-01-19T22:02:12.785Z,39.46
2023-01-19T22:04:40.672Z,39.49
2023-01-19T22:07:08.753Z,39.61
2023-01-19T22:09:36.538Z,39.41
2023-01-19T22:12:04.317Z,39.49
2023-01-19T22:14:31.940Z,39.50
2023-01-19T22:16:59.640Z,39.47
2023-01-19T22:19:28.658Z,39.71
2023-01-19T22:21:56.260Z,39.44
2023-01-19T22:24:23.962Z,39.34
2023-01-19T22:26:51.547Z,39.63
2023-01-19T22:29:19.263Z,39.64
2023-01-19T22:31:47.073Z,39.51
2023-01-19T22:34:17.074Z,39.59
2023-01-19T22:36:46.058Z,39.63
2023-01-19T22:39:13.726Z,39.46
2023-01-19T22:41:42.030Z,39.65
2023-01-19T22:44:11.267Z,39.64
2023-01-19T22:46:38.903Z,39.69
2023-01-19T22:49:07.472Z,39.61
2023-01-19T22:51:35.230Z,39.61
2023-01-19T22:54:04.501Z,39.67
2023-01-19T22:56:32.598Z,39.54
2023-01-19T22:59:00.682Z,39.60
2023-01-19T23:01:28.935Z,39.59
2023-01-19T23:03:56.662Z,39.68
2023-01-19T23:06:24.815Z,39.39
2023-01-19T23:08:52.550Z,39.56
2023-01-19T23:11:22.004Z,39.46
2023-01-19T23:13:49.713Z,39.40
2023-01-19T23:16:17.727Z,39.63
2023-01-19T23:18:45.451Z,39.53
2023-01-19T23:21:13.533Z,39.61
2023-01-19T23:23:41.207Z,39.59
2023-01-19T23:26:09.361Z,39.44
2023-01-19T23:28:39.201Z,39.62
2023-01-19T23:31:17.570Z,39.72
2023-01-19T23:33:45.340Z,39.61
2023-01-19T23:36:13.004Z,39.70
2023-01-19T23:38:40.642Z,39.62
2023-01-19T23:41:08.302Z,39.73
2023-01-19T23:43:35.955Z,39.62
